Enter the Airport ICAO Code

Search by Airport or City

Current Weather

LEAS | Asturias Airport (Oviedo Airport)

Oviedo, Asturias, Spain

Last Update 28 Minutes Ago

Partly Cloudy Sky

Temperature of 19 ēC

Light Winds from Variable Directions

Temperature

19 ēC

Dew Point Temperature

14 ēC

Relative Humidity

72.89 %

Wind Direction

Variable

Wind Velocity

7 km/h (04 kt)

Gusts

None

Visibility

Greater than 10 Kilometers

Sea Level Pressure

1027 hPa (Hectopascals)

Layers of Clouds

5% to 30% of Sky Covered from 610 mts (2000 ft) Above Ground Level.

5% to 30% of Sky Covered with Towering Cumulus from 945 mts (3100 ft) Above Ground Level.

30% to 60% of Sky Covered from 1585 mts (5200 ft) Above Ground Level.

METAR LEAS 211430Z VRB04KT 9999 FEW020 FEW031TCU SCT052 19/14 Q1027 NOSIG

Weather Forecast

LEAS | Asturias Airport (Oviedo Airport)

Oviedo, Asturias, Spain

Forecast valid for the next 24 Hours

From now on it is expected:

Partly Cloudy Sky

Light to Moderate Winds from NorthEast

In 4 hours it is expected the begining of 11 hours with intermittent periods of:

Rain, Rain, Mist

Maximum Temperature

21 ēC in 20 Hours

Minimum Temperature

15 ēC in 7 Hours

TAF LEAS 211400Z 2115/2215 04007KT 9999 SCT020 TX21/2211Z TN15/2122Z TEMPO 2115/2215 SCT020TCU PROB40 TEMPO 2119/2206 3000 RA SHRA BR BKN010 BKN020TCU